Eleanor Marie — WDF390 — position and weather

sailwx.info

Track history (hours):
 
Tides and Currents Weather Stations Pressure Air Temp Water Temp Dewpoint Dewpoint Depression Visibility Wind Speed Wind Dir Waves Ship Positions

Eleanor Marie

Last reported at 2018-Mar-12 18:31 UTC. Time now 2018-Jun-20 07:54 UTC.
Position N 34°41' W 120°46'.
Warning: this ship's position is months out of date.

Type: Pleasure craft. MMSI: 367445430.

Date/timePositionNaut miles runAvg speedWind from/ knotsBaromVisibWave heightAir tempDewpointWater temp
2018-Mar-12 18:31N 34°41' W 120°46'0 7.4
2018-Mar-12 18:30N 34°41' W 120°46'4 7.3
2018-Mar-12 18:00N 34°45' W 120°46'3 6.2
2018-Mar-12 17:29N 34°48' W 120°45'3 5.5
2018-Mar-12 17:00N 34°49' W 120°43'4 7.8
2018-Mar-12 16:30N 34°53' W 120°42'7 7.5
2018-Mar-12 15:32N 35°00' W 120°42'1 8.0
2018-Mar-12 15:28N 35°01' W 120°43'5 7.6
2018-Mar-12 14:50N 35°05' W 120°44'3 7.8
2018-Mar-12 14:28N 35°08' W 120°45'1 0.0
2018-Mar-11 10:30N 35°09' W 120°45'13 8.9
2018-Mar-11 09:00N 35°17' W 120°58'181 8.7
2018-Mar-10 12:05N 37°51' W 122°58'4 8.7
2018-Mar-10 11:40N 37°54' W 123°00'2 8.6
2018-Mar-10 11:28N 37°55' W 123°01'4 8.2
2018-Mar-10 11:00N 37°59' W 123°03'4 8.6
2018-Mar-10 10:30N 38°03' W 123°05'4 8.4
2018-Mar-10 09:58N 38°07' W 123°08'4 8.6
2018-Mar-10 09:28N 38°11' W 123°10'4 8.7
2018-Mar-10 09:00N 38°14' W 123°12'4 8.7
2018-Mar-10 08:30N 38°18' W 123°15'4 8.5
2018-Mar-10 08:00N 38°22' W 123°18'4 8.5
2018-Mar-10 07:30N 38°25' W 123°21'  
Track history (hours):
 
Tides and Currents Weather Stations Pressure Air Temp Water Temp Dewpoint Dewpoint Depression Visibility Wind Speed Wind Dir Waves Ship Positions

Eleanor Marie

Last reported at 2018-Mar-12 18:31 UTC. Time now 2018-Jun-20 07:54 UTC.
Position N 34°41' W 120°46'.
Warning: this ship's position is months out of date.

Type: Pleasure craft. MMSI: 367445430.

Date/timePositionNaut miles runAvg speedWind from/ knotsBaromVisibWave heightAir tempDewpointWater temp
2018-Mar-12 18:31N 34°41' W 120°46'0 7.4
2018-Mar-12 18:30N 34°41' W 120°46'4 7.3
2018-Mar-12 18:00N 34°45' W 120°46'3 6.2
2018-Mar-12 17:29N 34°48' W 120°45'3 5.5
2018-Mar-12 17:00N 34°49' W 120°43'4 7.8
2018-Mar-12 16:30N 34°53' W 120°42'7 7.5
2018-Mar-12 15:32N 35°00' W 120°42'1 8.0
2018-Mar-12 15:28N 35°01' W 120°43'5 7.6
2018-Mar-12 14:50N 35°05' W 120°44'3 7.8
2018-Mar-12 14:28N 35°08' W 120°45'1 0.0
2018-Mar-11 10:30N 35°09' W 120°45'13 8.9
2018-Mar-11 09:00N 35°17' W 120°58'181 8.7
2018-Mar-10 12:05N 37°51' W 122°58'4 8.7
2018-Mar-10 11:40N 37°54' W 123°00'2 8.6
2018-Mar-10 11:28N 37°55' W 123°01'4 8.2
2018-Mar-10 11:00N 37°59' W 123°03'4 8.6
2018-Mar-10 10:30N 38°03' W 123°05'4 8.4
2018-Mar-10 09:58N 38°07' W 123°08'4 8.6
2018-Mar-10 09:28N 38°11' W 123°10'4 8.7
2018-Mar-10 09:00N 38°14' W 123°12'4 8.7
2018-Mar-10 08:30N 38°18' W 123°15'4 8.5
2018-Mar-10 08:00N 38°22' W 123°18'4 8.5
2018-Mar-10 07:30N 38°25' W 123°21'  

Dump ship's entire track history